Time;durP1;ratioP1;P1;durP2;ratioP2;P2;SDS_P1;SDS_P2;PMS_P1;PMS_P2;Temp;Humidity;BMP_temperature;BMP_pressure;BME280_temperature;BME280_humidity;BME280_pressure;Samples;Min_cycle;Max_cycle;Signal;HPM_P1;HPM_P2
2022/07/29 00:00:16;;;;;;;3.37;1.97;;;12.40;99.60;;;;;;5002001;28;20320;-91
2022/07/29 00:02:43;;;;;;;5.03;1.50;;;12.40;99.70;;;;;;5004068;28;20250;-91
2022/07/29 00:05:13;;;;;;;6.77;1.80;;;12.30;99.70;;;;;;5003250;28;20217;-91
2022/07/29 00:07:41;;;;;;;4.53;1.53;;;12.30;99.90;;;;;;4997087;28;20236;-90
2022/07/29 00:10:09;;;;;;;3.33;1.27;;;12.30;99.90;;;;;;5003887;28;20246;-91
2022/07/29 00:12:38;;;;;;;3.73;1.50;;;12.30;99.90;;;;;;5000933;28;20250;-90
2022/07/29 00:15:06;;;;;;;1.70;1.40;;;12.30;99.90;;;;;;5004716;28;20224;-91
2022/07/29 00:17:34;;;;;;;3.23;1.83;;;12.20;99.90;;;;;;5006171;28;20781;-91
2022/07/29 00:20:01;;;;;;;5.47;1.60;;;12.10;99.90;;;;;;5018686;28;20214;-92
2022/07/29 00:22:28;;;;;;;3.57;1.43;;;12.20;99.90;;;;;;5000691;28;20285;-91
2022/07/29 00:24:56;;;;;;;3.70;1.60;;;12.20;99.90;;;;;;5001864;28;20228;-91
2022/07/29 00:27:23;;;;;;;5.30;1.87;;;12.10;99.90;;;;;;5000953;28;20222;-91
2022/07/29 00:29:50;;;;;;;4.43;1.57;;;12.10;99.90;;;;;;5001584;28;20229;-91
2022/07/29 00:32:17;;;;;;;4.63;1.77;;;12.00;99.90;;;;;;5002259;28;20713;-91
2022/07/29 00:37:27;;;;;;;6.50;1.83;;;12.00;99.90;;;;;;5004596;28;20698;-90
2022/07/29 00:39:56;;;;;;;2.80;1.50;;;11.90;99.90;;;;;;5003945;28;20324;-90
2022/07/29 00:42:22;;;;;;;5.90;1.87;;;11.90;99.90;;;;;;5004126;28;20306;-90
2022/07/29 00:44:49;;;;;;;5.43;2.13;;;11.80;99.90;;;;;;5001876;28;20219;-90
2022/07/29 00:47:16;;;;;;;4.20;1.83;;;11.80;99.90;;;;;;5005782;28;20279;-91
2022/07/29 00:49:43;;;;;;;3.03;1.60;;;11.80;99.90;;;;;;5000210;28;20233;-92
2022/07/29 00:52:12;;;;;;;2.77;1.60;;;11.70;99.90;;;;;;5019984;28;20242;-91
2022/07/29 00:54:39;;;;;;;3.30;1.63;;;11.70;99.90;;;;;;4998787;28;20314;-91
2022/07/29 00:57:08;;;;;;;7.07;1.73;;;11.70;99.90;;;;;;5001896;28;21041;-91
2022/07/29 00:59:35;;;;;;;2.73;1.60;;;11.70;99.90;;;;;;5018206;28;20221;-91
2022/07/29 01:02:02;;;;;;;7.00;1.67;;;11.70;99.90;;;;;;5002505;28;20314;-90
2022/07/29 01:04:29;;;;;;;2.13;1.87;;;11.60;99.90;;;;;;4999627;28;20973;-91
2022/07/29 01:06:56;;;;;;;5.03;1.90;;;11.60;99.90;;;;;;5022509;28;22034;-91
2022/07/29 01:09:24;;;;;;;4.10;1.50;;;11.60;99.90;;;;;;5002390;28;20246;-91
2022/07/29 01:11:51;;;;;;;3.67;1.77;;;11.60;99.90;;;;;;5015778;28;20222;-91
2022/07/29 01:14:21;;;;;;;4.07;1.80;;;11.40;99.90;;;;;;4999315;28;20313;-91
2022/07/29 01:16:54;;;;;;;2.73;1.77;;;11.50;99.90;;;;;;5000955;28;20237;-91
2022/07/29 01:19:39;;;;;;;3.10;1.77;;;11.50;99.90;;;;;;5003078;28;20702;-91
2022/07/29 01:22:24;;;;;;;4.57;1.97;;;11.50;99.90;;;;;;4996613;28;20265;-91
2022/07/29 01:25:06;;;;;;;3.67;1.73;;;11.50;99.90;;;;;;5003730;28;20223;-91
2022/07/29 01:27:45;;;;;;;3.80;2.00;;;11.50;99.90;;;;;;5015927;28;20226;-90
2022/07/29 01:30:14;;;;;;;2.50;1.70;;;11.50;99.90;;;;;;5019430;28;20315;-91
2022/07/29 01:32:43;;;;;;;4.70;1.80;;;11.50;99.90;;;;;;5003814;28;20231;-91
2022/07/29 01:35:17;;;;;;;3.53;1.90;;;11.40;99.90;;;;;;5019113;28;20713;-91
2022/07/29 01:37:49;;;;;;;4.50;1.80;;;11.50;99.90;;;;;;5020938;28;20274;-91
2022/07/29 01:40:22;;;;;;;5.20;1.90;;;11.40;99.90;;;;;;5022198;28;20279;-91
2022/07/29 01:42:53;;;;;;;4.83;1.80;;;11.50;99.90;;;;;;5004441;28;20650;-91
2022/07/29 01:45:27;;;;;;;4.80;1.70;;;11.50;99.90;;;;;;5001055;28;20243;-91
2022/07/29 01:48:01;;;;;;;2.83;1.80;;;11.50;99.90;;;;;;5001804;28;20435;-90
2022/07/29 01:50:32;;;;;;;2.77;1.77;;;11.50;99.90;;;;;;5004815;28;20743;-91
2022/07/29 01:53:02;;;;;;;4.90;1.87;;;11.50;99.90;;;;;;5017042;28;20823;-91
2022/07/29 01:55:32;;;;;;;4.43;1.80;;;11.50;99.90;;;;;;5000217;28;20225;-91
2022/07/29 01:58:01;;;;;;;4.67;2.40;;;11.50;99.90;;;;;;5016347;28;20219;-91
2022/07/29 02:00:32;;;;;;;4.20;2.20;;;11.60;99.90;;;;;;5001994;28;20785;-90
2022/07/29 02:03:01;;;;;;;4.70;2.00;;;11.50;99.90;;;;;;5001208;28;20242;-91
2022/07/29 02:05:31;;;;;;;3.20;2.03;;;11.50;99.90;;;;;;5001058;28;20251;-91
2022/07/29 02:07:59;;;;;;;3.90;1.90;;;11.60;99.90;;;;;;5020830;28;20233;-91
2022/07/29 02:10:30;;;;;;;4.87;2.00;;;11.60;99.90;;;;;;4999743;28;20305;-91
2022/07/29 02:12:59;;;;;;;4.10;2.23;;;11.60;99.90;;;;;;5001358;28;20334;-91
2022/07/29 02:15:28;;;;;;;4.77;2.17;;;11.60;99.90;;;;;;5000203;28;20259;-91
2022/07/29 02:18:01;;;;;;;4.83;2.13;;;11.60;99.90;;;;;;5003453;28;20308;-90
2022/07/29 02:20:29;;;;;;;3.10;2.00;;;11.70;99.90;;;;;;5002058;28;20225;-91
2022/07/29 02:22:58;;;;;;;4.83;2.00;;;11.70;99.90;;;;;;5016595;28;20270;-91
2022/07/29 02:25:25;;;;;;;2.93;2.00;;;11.60;99.90;;;;;;4998601;28;20308;-91
2022/07/29 02:27:53;;;;;;;3.10;2.03;;;11.60;99.90;;;;;;5015360;28;20351;-91
2022/07/29 02:30:23;;;;;;;3.50;1.80;;;11.70;99.90;;;;;;4999376;28;20677;-90
2022/07/29 02:32:51;;;;;;;4.60;1.90;;;11.70;99.90;;;;;;5003213;28;20738;-91
2022/07/29 02:35:22;;;;;;;2.40;1.87;;;11.70;99.90;;;;;;5017605;28;20311;-91
2022/07/29 02:40:33;;;;;;;4.03;2.10;;;11.70;99.90;;;;;;5006219;28;20300;-90
2022/07/29 02:43:01;;;;;;;4.43;2.40;;;11.60;99.90;;;;;;5008384;28;20788;-91
2022/07/29 02:45:29;;;;;;;5.30;2.33;;;11.70;99.90;;;;;;5021961;28;21963;-91
2022/07/29 02:47:58;;;;;;;7.03;2.20;;;11.70;99.90;;;;;;5008734;28;20233;-90
2022/07/29 02:50:33;;;;;;;2.73;2.10;;;11.70;99.90;;;;;;5002325;28;20229;-90
2022/07/29 02:53:06;;;;;;;5.90;2.27;;;11.70;99.90;;;;;;5001667;28;20334;-91
2022/07/29 02:55:35;;;;;;;4.53;2.30;;;11.70;99.90;;;;;;5008975;28;20217;-91
2022/07/29 02:58:03;;;;;;;3.80;2.13;;;11.70;99.90;;;;;;5002314;28;20660;-91
2022/07/29 03:00:34;;;;;;;5.03;2.13;;;11.70;99.90;;;;;;5007145;28;20221;-90
2022/07/29 03:03:04;;;;;;;5.57;2.47;;;11.70;99.90;;;;;;5003921;28;20317;-91
2022/07/29 03:05:33;;;;;;;3.27;2.20;;;11.70;99.90;;;;;;5018012;28;20221;-89
2022/07/29 03:08:03;;;;;;;5.10;2.30;;;11.60;99.90;;;;;;5023689;28;20227;-90
2022/07/29 03:10:31;;;;;;;4.73;2.20;;;11.70;99.90;;;;;;5024032;28;20229;-91
2022/07/29 03:12:59;;;;;;;3.07;1.80;;;11.70;99.90;;;;;;5008819;28;20232;-91
2022/07/29 03:15:26;;;;;;;3.90;2.20;;;11.70;99.90;;;;;;5004532;28;20227;-91
2022/07/29 03:17:53;;;;;;;7.00;2.53;;;11.70;99.90;;;;;;5011321;28;20219;-91
2022/07/29 03:20:20;;;;;;;3.57;1.87;;;11.70;99.90;;;;;;5000834;28;20280;-89
2022/07/29 03:22:49;;;;;;;4.47;2.50;;;11.70;99.90;;;;;;5002644;28;20303;-91
2022/07/29 03:25:18;;;;;;;6.77;2.67;;;11.70;99.90;;;;;;5003868;28;20747;-92
2022/07/29 03:27:46;;;;;;;5.07;2.27;;;11.70;99.90;;;;;;5008752;28;20233;-92
2022/07/29 03:30:14;;;;;;;4.77;2.30;;;11.70;99.90;;;;;;5008167;28;20228;-92
2022/07/29 03:32:41;;;;;;;4.80;2.47;;;11.70;99.90;;;;;;5009458;28;20284;-92
2022/07/29 03:35:09;;;;;;;3.47;2.53;;;11.80;99.90;;;;;;5008428;28;20765;-92
2022/07/29 03:37:36;;;;;;;4.40;2.17;;;11.80;99.90;;;;;;5005936;28;20312;-92
2022/07/29 03:40:14;;;;;;;4.90;2.50;;;11.80;99.90;;;;;;5003777;28;20913;-92
2022/07/29 03:42:43;;;;;;;5.53;2.63;;;11.80;99.90;;;;;;5020720;28;20244;-92
2022/07/29 03:45:14;;;;;;;3.17;2.27;;;11.90;99.90;;;;;;5020120;28;20268;-92
2022/07/29 03:47:46;;;;;;;5.33;2.30;;;11.90;99.90;;;;;;5002796;28;20748;-93
2022/07/29 03:50:16;;;;;;;5.70;2.23;;;12.00;99.90;;;;;;5006497;28;20737;-92
2022/07/29 03:52:44;;;;;;;5.10;2.60;;;11.90;99.90;;;;;;5002912;28;20231;-92
2022/07/29 03:55:15;;;;;;;6.57;2.57;;;12.00;99.90;;;;;;5003712;28;20309;-92
2022/07/29 03:57:42;;;;;;;3.93;2.57;;;12.00;99.90;;;;;;5006753;28;20659;-92
2022/07/29 04:00:10;;;;;;;3.90;2.20;;;12.00;99.90;;;;;;5004535;28;20222;-91
2022/07/29 04:02:38;;;;;;;3.77;2.43;;;12.00;99.90;;;;;;5010642;28;20291;-92
2022/07/29 04:05:06;;;;;;;5.27;2.10;;;12.00;99.90;;;;;;5017391;28;20253;-92
2022/07/29 04:07:32;;;;;;;7.63;2.60;;;12.10;99.90;;;;;;5004056;28;20306;-91
2022/07/29 04:09:59;;;;;;;6.17;2.73;;;12.10;99.90;;;;;;5020685;28;20267;-92
2022/07/29 04:12:27;;;;;;;5.43;2.77;;;12.10;99.90;;;;;;5015783;28;20464;-93
2022/07/29 04:14:54;;;;;;;5.40;2.23;;;12.20;99.90;;;;;;5005666;28;20257;-92
2022/07/29 04:17:21;;;;;;;4.60;2.23;;;12.30;99.90;;;;;;5005019;28;20241;-92
2022/07/29 04:19:48;;;;;;;3.93;2.37;;;12.30;99.90;;;;;;5006347;28;20236;-92
2022/07/29 04:22:14;;;;;;;4.90;2.70;;;12.30;99.90;;;;;;5006710;28;20228;-92
2022/07/29 04:24:41;;;;;;;4.57;2.60;;;12.40;99.90;;;;;;5005721;28;20371;-91
2022/07/29 04:27:08;;;;;;;5.93;2.20;;;12.40;99.90;;;;;;5002681;28;20226;-90
2022/07/29 04:29:36;;;;;;;7.43;2.47;;;12.40;99.90;;;;;;5004191;28;20514;-89
2022/07/29 04:32:03;;;;;;;6.17;2.63;;;12.50;99.90;;;;;;5001545;28;20234;-91
2022/07/29 04:34:30;;;;;;;5.30;2.50;;;12.50;99.90;;;;;;5003303;28;20970;-90
2022/07/29 04:36:56;;;;;;;6.70;2.23;;;12.50;99.90;;;;;;5004740;28;20234;-91
2022/07/29 04:39:23;;;;;;;9.63;2.93;;;12.70;99.90;;;;;;5016528;28;20245;-90
2022/07/29 04:41:51;;;;;;;4.23;2.33;;;12.60;99.90;;;;;;5000146;28;20222;-90
2022/07/29 04:44:18;;;;;;;10.63;2.57;;;12.70;99.90;;;;;;5001929;28;20225;-90
2022/07/29 04:46:46;;;;;;;5.77;2.53;;;12.80;99.90;;;;;;5003994;28;20232;-90
2022/07/29 04:49:13;;;;;;;8.77;2.87;;;12.90;99.90;;;;;;5018070;28;20210;-90
2022/07/29 04:51:40;;;;;;;3.90;2.60;;;12.90;99.90;;;;;;4999715;28;20243;-89
2022/07/29 04:54:07;;;;;;;3.23;2.30;;;13.00;99.90;;;;;;5017810;28;20246;-91
2022/07/29 04:56:34;;;;;;;3.97;2.30;;;13.10;99.90;;;;;;5004823;28;20287;-89
2022/07/29 04:59:01;;;;;;;5.23;2.60;;;13.10;99.90;;;;;;5020543;28;20310;-90
2022/07/29 05:01:28;;;;;;;4.80;2.10;;;13.20;99.90;;;;;;5003848;28;20233;-90
2022/07/29 05:03:56;;;;;;;6.20;2.20;;;13.30;99.90;;;;;;5002979;28;20307;-90
2022/07/29 05:06:22;;;;;;;5.37;2.43;;;13.40;99.90;;;;;;5003066;28;20216;-91
2022/07/29 05:08:49;;;;;;;6.50;2.67;;;13.40;99.90;;;;;;4997627;28;20694;-90
2022/07/29 05:11:16;;;;;;;5.97;2.73;;;13.50;99.90;;;;;;5013751;28;20224;-91
2022/07/29 05:13:43;;;;;;;6.67;2.40;;;13.60;99.90;;;;;;5018738;28;20277;-90
2022/07/29 05:16:10;;;;;;;4.23;2.33;;;13.60;99.90;;;;;;5013708;28;20241;-90
2022/07/29 05:18:36;;;;;;;5.13;2.60;;;13.70;99.90;;;;;;5003090;28;20230;-90
2022/07/29 05:21:05;;;;;;;3.77;2.50;;;13.90;99.90;;;;;;5017779;28;20234;-91
2022/07/29 05:23:32;;;;;;;5.23;2.30;;;13.90;99.90;;;;;;5023069;28;20281;-89
2022/07/29 05:25:58;;;;;;;9.50;2.40;;;14.00;99.90;;;;;;5021211;28;20207;-92
2022/07/29 05:28:25;;;;;;;3.93;2.30;;;14.10;99.90;;;;;;5039788;28;20283;-93
2022/07/29 05:30:52;;;;;;;5.83;2.33;;;14.20;99.90;;;;;;5032167;28;20260;-93
2022/07/29 05:33:19;;;;;;;4.93;2.10;;;14.30;99.90;;;;;;5003799;28;20600;-92
2022/07/29 05:35:46;;;;;;;2.97;2.13;;;14.40;99.90;;;;;;5015415;28;20303;-92
2022/07/29 05:38:14;;;;;;;5.37;2.50;;;14.50;99.90;;;;;;5005405;28;20724;-92
2022/07/29 05:40:40;;;;;;;4.33;2.47;;;14.50;99.90;;;;;;5011206;28;20227;-91
2022/07/29 05:43:07;;;;;;;3.83;2.17;;;14.60;99.90;;;;;;5016788;28;20241;-91
2022/07/29 05:45:34;;;;;;;4.87;2.17;;;14.70;99.90;;;;;;5020707;28;20311;-91
2022/07/29 05:48:01;;;;;;;3.07;2.50;;;14.90;99.90;;;;;;5017770;28;20219;-92
2022/07/29 05:50:27;;;;;;;3.47;2.50;;;15.00;99.90;;;;;;5017692;28;20250;-91
2022/07/29 05:52:54;;;;;;;4.93;2.17;;;15.10;99.90;;;;;;5014261;28;20248;-92
2022/07/29 05:55:22;;;;;;;5.17;2.50;;;15.20;99.90;;;;;;5017398;28;20228;-92
2022/07/29 05:57:49;;;;;;;6.70;2.13;;;15.30;99.90;;;;;;5012750;28;20244;-91
2022/07/29 06:00:16;;;;;;;6.50;2.40;;;15.40;99.90;;;;;;5032725;28;20220;-91
2022/07/29 06:02:43;;;;;;;3.83;2.10;;;15.40;99.90;;;;;;5020069;28;20238;-90
2022/07/29 06:05:10;;;;;;;3.40;2.13;;;15.50;99.90;;;;;;5034276;28;20294;-90
2022/07/29 06:07:37;;;;;;;4.03;2.17;;;15.70;99.90;;;;;;5015814;28;20225;-91
2022/07/29 06:10:04;;;;;;;6.00;2.40;;;15.80;99.90;;;;;;5032652;28;20320;-91
2022/07/29 06:12:33;;;;;;;7.17;2.30;;;15.80;99.90;;;;;;5015646;28;20244;-90
2022/07/29 06:14:59;;;;;;;4.50;2.00;;;15.90;99.90;;;;;;5020858;28;20749;-91
2022/07/29 06:17:26;;;;;;;6.87;2.03;;;16.10;99.90;;;;;;5023460;28;20624;-90
2022/07/29 06:19:53;;;;;;;2.77;1.90;;;16.10;99.90;;;;;;5021061;28;20757;-91
2022/07/29 06:22:20;;;;;;;5.77;2.10;;;16.20;99.80;;;;;;5027855;28;20232;-91
2022/07/29 06:24:46;;;;;;;3.83;2.00;;;16.30;99.70;;;;;;5020026;28;20237;-91
2022/07/29 06:27:13;;;;;;;3.10;1.80;;;16.40;99.70;;;;;;5022204;28;20621;-91
2022/07/29 06:29:41;;;;;;;3.43;2.00;;;16.50;99.40;;;;;;5045163;28;20247;-92
2022/07/29 06:32:09;;;;;;;4.90;2.27;;;16.50;99.40;;;;;;5031287;28;20257;-92
2022/07/29 06:34:35;;;;;;;2.57;2.03;;;16.70;99.60;;;;;;5030967;28;20236;-91
2022/07/29 06:37:07;;;;;;;3.60;2.03;;;16.70;99.50;;;;;;5052318;28;20298;-91
2022/07/29 06:39:35;;;;;;;5.43;2.10;;;16.90;99.50;;;;;;5027796;28;20217;-91
2022/07/29 06:42:01;;;;;;;4.60;2.00;;;17.00;99.30;;;;;;5024705;28;20711;-91
2022/07/29 06:44:29;;;;;;;4.27;2.23;;;17.20;99.20;;;;;;5015783;28;20233;-91
2022/07/29 06:46:57;;;;;;;3.73;2.20;;;17.30;99.00;;;;;;5041161;28;20237;-91
2022/07/29 06:49:25;;;;;;;3.00;1.80;;;17.40;98.60;;;;;;5030014;28;20232;-91
2022/07/29 06:51:52;;;;;;;4.13;2.27;;;17.50;98.60;;;;;;5039325;28;20229;-92
2022/07/29 06:54:19;;;;;;;4.07;2.00;;;17.60;98.60;;;;;;5022758;28;20236;-90
2022/07/29 06:56:46;;;;;;;4.60;2.00;;;17.70;98.70;;;;;;5042084;28;20243;-92
2022/07/29 06:59:14;;;;;;;4.57;2.37;;;17.90;98.40;;;;;;5023587;28;20248;-92
2022/07/29 07:01:42;;;;;;;4.03;1.88;;;18.00;98.10;;;;;;5015483;28;20261;-92
2022/07/29 07:04:11;;;;;;;6.83;2.40;;;18.20;97.90;;;;;;5018316;28;20229;-91
2022/07/29 07:06:38;;;;;;;3.13;1.73;;;18.30;97.80;;;;;;5026103;28;20218;-91
2022/07/29 07:09:05;;;;;;;5.60;1.95;;;18.50;97.80;;;;;;5017611;28;20289;-92
2022/07/29 07:11:32;;;;;;;2.60;1.90;;;18.60;97.50;;;;;;5041330;28;20301;-91
2022/07/29 07:13:59;;;;;;;5.63;2.35;;;18.80;97.30;;;;;;5027178;28;20332;-91
2022/07/29 07:16:26;;;;;;;4.40;1.85;;;18.90;97.20;;;;;;5021017;28;20290;-91
2022/07/29 07:18:53;;;;;;;5.50;1.70;;;19.20;97.00;;;;;;5037280;28;20242;-91
2022/07/29 07:21:21;;;;;;;5.28;2.05;;;19.40;96.60;;;;;;5037195;28;20519;-91
2022/07/29 07:23:48;;;;;;;5.20;2.10;;;19.60;96.10;;;;;;5021902;28;20256;-92
2022/07/29 07:26:14;;;;;;;6.85;2.15;;;19.70;95.90;;;;;;5024799;28;20763;-92
2022/07/29 07:28:41;;;;;;;4.38;2.00;;;19.70;95.50;;;;;;5025056;28;20308;-93
2022/07/29 07:31:08;;;;;;;5.90;2.00;;;19.80;95.10;;;;;;5023782;28;20237;-92
2022/07/29 07:33:35;;;;;;;7.47;2.22;;;19.80;95.00;;;;;;5022040;28;20256;-91
2022/07/29 07:36:01;;;;;;;4.18;1.70;;;19.80;95.10;;;;;;5026067;28;20285;-92
2022/07/29 07:38:29;;;;;;;4.82;1.98;;;19.90;95.20;;;;;;5019172;28;20236;-92
2022/07/29 07:40:56;;;;;;;3.65;1.85;;;20.00;95.20;;;;;;5024897;28;20249;-92
2022/07/29 07:43:23;;;;;;;2.75;1.88;;;20.00;95.10;;;;;;5022580;28;20235;-92
2022/07/29 07:45:50;;;;;;;3.05;1.83;;;20.10;94.80;;;;;;5038244;28;20221;-92
2022/07/29 07:48:16;;;;;;;6.88;2.13;;;20.20;94.40;;;;;;5025173;28;20225;-91
2022/07/29 07:50:44;;;;;;;3.47;1.90;;;20.40;94.30;;;;;;5024608;28;20314;-92
2022/07/29 07:53:10;;;;;;;2.28;1.80;;;20.40;94.10;;;;;;5042059;28;20491;-92
2022/07/29 07:55:42;;;;;;;2.60;1.90;;;20.50;94.00;;;;;;5024144;28;20404;-93
2022/07/29 07:58:09;;;;;;;3.22;1.80;;;20.60;93.80;;;;;;5042154;28;20267;-92
2022/07/29 08:00:36;;;;;;;3.85;1.90;;;20.70;93.90;;;;;;5019507;28;20250;-91
2022/07/29 08:03:02;;;;;;;3.55;2.03;;;20.90;93.50;;;;;;5021266;28;20229;-92
2022/07/29 08:05:29;;;;;;;4.18;1.50;;;21.00;93.30;;;;;;5041367;28;20218;-92
2022/07/29 08:07:56;;;;;;;2.22;1.63;;;21.10;93.30;;;;;;5023720;28;20233;-91
2022/07/29 08:13:06;;;;;;;5.95;1.90;;;21.20;93.10;;;;;;5017479;28;20300;-92
2022/07/29 08:15:33;;;;;;;4.20;1.52;;;21.40;92.80;;;;;;5037628;28;20221;-92
2022/07/29 08:18:00;;;;;;;5.18;1.77;;;21.70;93.10;;;;;;5030111;28;20417;-91
2022/07/29 08:20:27;;;;;;;4.00;1.70;;;22.00;92.70;;;;;;5025712;28;20240;-92
2022/07/29 08:22:54;;;;;;;3.30;1.80;;;22.30;92.50;;;;;;5023081;28;20294;-91
2022/07/29 08:25:21;;;;;;;3.83;1.67;;;22.70;92.30;;;;;;5020390;28;20251;-92
2022/07/29 08:27:48;;;;;;;4.95;1.80;;;23.20;91.70;;;;;;5023823;28;20218;-92
2022/07/29 08:30:16;;;;;;;2.90;1.92;;;23.80;91.10;;;;;;5018529;28;20226;-92
2022/07/29 08:32:43;;;;;;;4.88;1.70;;;24.30;90.20;;;;;;5038983;28;20253;-93
2022/07/29 08:35:10;;;;;;;4.07;1.98;;;24.80;88.70;;;;;;5031309;28;20235;-91
2022/07/29 08:37:37;;;;;;;3.28;1.85;;;25.20;84.80;;;;;;5038463;28;20227;-92
2022/07/29 08:40:05;;;;;;;3.72;1.70;;;25.50;83.90;;;;;;5025446;28;20229;-92
2022/07/29 08:42:32;;;;;;;2.90;1.70;;;25.50;83.30;;;;;;5017436;28;20661;-91
2022/07/29 08:45:00;;;;;;;2.75;2.00;;;25.60;84.10;;;;;;5045371;28;20253;-92
2022/07/29 08:47:29;;;;;;;5.68;1.80;;;25.80;83.40;;;;;;5027077;28;20311;-91
2022/07/29 08:49:55;;;;;;;6.07;2.00;;;26.10;80.30;;;;;;5025693;28;20239;-92
2022/07/29 08:52:24;;;;;;;5.72;1.98;;;26.30;81.00;;;;;;5024646;28;20275;-92
2022/07/29 08:54:52;;;;;;;4.10;2.13;;;26.40;81.00;;;;;;5027088;28;20236;-92
2022/07/29 08:57:20;;;;;;;4.40;1.60;;;26.60;80.70;;;;;;5045844;28;20225;-92
2022/07/29 08:59:51;;;;;;;3.97;1.77;;;26.90;79.60;;;;;;5026401;28;20210;-92
2022/07/29 09:02:21;;;;;;;3.72;1.83;;;27.10;77.90;;;;;;5025647;28;20316;-92
2022/07/29 09:04:49;;;;;;;3.95;1.73;;;27.40;77.40;;;;;;5026220;28;20222;-92
2022/07/29 09:07:18;;;;;;;3.53;1.70;;;27.80;76.10;;;;;;5027648;28;20221;-93
2022/07/29 09:09:45;;;;;;;3.00;1.77;;;28.10;74.10;;;;;;5029515;28;20220;-93
2022/07/29 09:12:13;;;;;;;5.13;1.83;;;28.30;74.60;;;;;;5021525;28;20217;-92
2022/07/29 09:14:40;;;;;;;3.95;2.10;;;28.60;73.00;;;;;;5026601;28;20217;-92
2022/07/29 09:17:08;;;;;;;3.75;1.65;;;28.80;72.70;;;;;;5019157;28;20226;-93
2022/07/29 09:19:38;;;;;;;4.13;1.70;;;29.00;71.70;;;;;;5022047;28;20269;-91
2022/07/29 09:22:09;;;;;;;6.03;1.98;;;29.30;71.50;;;;;;5035415;28;20217;-92
2022/07/29 09:24:41;;;;;;;2.95;1.77;;;29.60;69.70;;;;;;5026065;28;20596;-91
2022/07/29 09:27:10;;;;;;;3.17;1.42;;;30.10;69.00;;;;;;5023602;28;20237;-91
2022/07/29 09:29:38;;;;;;;6.65;1.90;;;30.40;67.90;;;;;;5026392;28;20249;-91
2022/07/29 09:32:10;;;;;;;2.95;1.60;;;30.80;65.80;;;;;;5030045;28;20524;-92
2022/07/29 09:34:38;;;;;;;3.20;2.00;;;30.90;64.00;;;;;;5022757;28;20206;-92
2022/07/29 09:37:06;;;;;;;4.00;1.80;;;31.00;64.60;;;;;;5030835;28;20205;-92
2022/07/29 09:39:36;;;;;;;3.03;1.50;;;31.20;62.30;;;;;;5024447;28;20221;-91
2022/07/29 09:42:05;;;;;;;3.20;1.58;;;31.40;61.90;;;;;;5023816;28;20240;-92
2022/07/29 09:44:43;;;;;;;3.08;1.63;;;31.70;60.70;;;;;;5025701;28;20277;-91
2022/07/29 09:47:09;;;;;;;6.60;1.80;;;31.80;59.10;;;;;;5025755;28;20217;-92
2022/07/29 09:49:51;;;;;;;6.05;1.80;;;31.70;57.90;;;;;;5023524;28;20269;-93
2022/07/29 09:52:20;;;;;;;2.70;1.33;;;31.50;57.00;;;;;;5020729;28;20283;-90
2022/07/29 09:54:47;;;;;;;2.42;1.25;;;31.20;55.90;;;;;;5022428;28;20205;-92
2022/07/29 09:57:25;;;;;;;1.90;1.30;;;30.80;56.20;;;;;;5026030;28;20273;-91
2022/07/29 10:00:00;;;;;;;3.05;1.38;;;30.50;56.60;;;;;;5026261;28;20511;-91
2022/07/29 10:02:31;;;;;;;2.08;1.10;;;30.20;57.10;;;;;;5029980;28;20232;-91
2022/07/29 10:04:58;;;;;;;2.92;1.33;;;30.10;57.60;;;;;;5033176;28;20217;-92
2022/07/29 10:07:27;;;;;;;6.07;1.40;;;29.90;57.60;;;;;;5020752;28;20243;-91
2022/07/29 10:09:56;;;;;;;3.58;1.10;;;29.90;57.40;;;;;;5026476;28;20216;-92
2022/07/29 10:12:23;;;;;;;2.22;1.30;;;29.80;57.50;;;;;;5019118;28;20463;-92
2022/07/29 10:14:51;;;;;;;2.55;1.20;;;29.80;58.00;;;;;;5030158;28;20412;-92
2022/07/29 10:17:19;;;;;;;2.20;1.48;;;29.90;57.50;;;;;;5026973;28;20543;-92
2022/07/29 10:19:48;;;;;;;4.60;1.40;;;29.90;56.90;;;;;;5023223;28;20280;-91
2022/07/29 10:22:15;;;;;;;4.22;1.63;;;29.90;57.30;;;;;;5020890;28;20218;-92
2022/07/29 10:24:44;;;;;;;6.68;1.55;;;29.90;56.90;;;;;;5017650;28;20230;-91
2022/07/29 10:27:11;;;;;;;2.58;1.20;;;29.80;56.60;;;;;;5026136;28;20256;-92
2022/07/29 10:29:38;;;;;;;3.85;1.50;;;29.70;56.40;;;;;;5023061;28;20240;-92
2022/07/29 10:32:26;;;;;;;2.88;1.40;;;29.50;56.40;;;;;;5024970;28;20223;-91
2022/07/29 10:35:07;;;;;;;3.33;1.40;;;29.30;56.10;;;;;;5039970;28;20225;-91
2022/07/29 10:37:43;;;;;;;3.55;1.50;;;29.20;56.50;;;;;;5027839;28;20244;-91
2022/07/29 10:43:17;;;;;;;3.47;1.30;;;28.80;56.90;;;;;;5019475;28;20209;-91
2022/07/29 10:45:45;;;;;;;4.78;1.40;;;28.70;57.80;;;;;;5016369;28;20272;-91
2022/07/29 10:48:11;;;;;;;4.20;2.22;;;28.60;57.70;;;;;;5041503;28;20281;-92
2022/07/29 10:50:55;;;;;;;2.22;1.50;;;28.60;58.00;;;;;;5025999;28;20229;-92
2022/07/29 10:53:23;;;;;;;3.20;1.40;;;28.70;57.60;;;;;;5022889;28;20213;-93
2022/07/29 10:55:52;;;;;;;5.05;1.23;;;28.80;57.50;;;;;;5045623;28;20256;-92
2022/07/29 10:58:20;;;;;;;4.60;1.35;;;28.80;57.50;;;;;;5028523;28;20288;-92
2022/07/29 11:00:48;;;;;;;3.20;1.45;;;28.80;57.50;;;;;;5023049;28;20240;-92
2022/07/29 11:03:45;;;;;;;3.85;1.40;;;28.80;57.60;;;;;;5024017;28;20213;-91
2022/07/29 11:06:12;;;;;;;5.72;1.50;;;28.90;57.60;;;;;;5037832;28;20274;-92
2022/07/29 11:08:39;;;;;;;3.63;1.30;;;29.10;57.80;;;;;;5028758;28;20236;-91
2022/07/29 11:11:36;;;;;;;4.35;1.38;;;29.10;57.80;;;;;;5031360;28;20384;-93
2022/07/29 11:14:03;;;;;;;3.72;1.50;;;29.30;58.30;;;;;;5036127;28;20210;-91
2022/07/29 11:17:01;;;;;;;3.40;1.42;;;29.40;56.50;;;;;;5029864;28;20277;-92
2022/07/29 11:19:28;;;;;;;6.90;1.40;;;29.40;56.60;;;;;;5028021;28;20213;-91
2022/07/29 11:21:55;;;;;;;2.67;1.38;;;29.40;56.00;;;;;;5028246;28;20213;-92
2022/07/29 11:24:27;;;;;;;1.65;1.20;;;29.40;55.80;;;;;;5042421;28;20252;-91
2022/07/29 11:27:19;;;;;;;4.07;1.33;;;29.50;56.30;;;;;;5037284;28;20215;-92
2022/07/29 11:29:54;;;;;;;5.18;1.40;;;29.50;56.00;;;;;;5046121;28;20224;-92
2022/07/29 11:32:23;;;;;;;2.15;1.42;;;29.70;55.20;;;;;;5030429;28;20245;-91
2022/07/29 11:35:10;;;;;;;3.28;1.20;;;29.90;54.80;;;;;;5028937;28;20229;-92
2022/07/29 11:37:37;;;;;;;2.13;1.48;;;30.00;54.70;;;;;;5025023;28;20368;-92
2022/07/29 11:40:16;;;;;;;1.73;1.20;;;30.00;54.20;;;;;;5045277;28;20248;-92
2022/07/29 11:42:54;;;;;;;2.17;1.20;;;30.10;53.80;;;;;;5030057;28;20225;-92
2022/07/29 11:45:27;;;;;;;2.47;1.23;;;30.10;53.90;;;;;;5029643;28;20285;-92
2022/07/29 11:47:57;;;;;;;2.95;1.33;;;30.20;53.80;;;;;;5029574;28;20362;-92
2022/07/29 11:50:30;;;;;;;2.90;1.40;;;30.30;54.70;;;;;;5012668;28;20723;-92
2022/07/29 11:53:14;;;;;;;3.22;1.35;;;30.50;54.20;;;;;;5028137;28;20257;-96
2022/07/29 11:55:41;;;;;;;4.65;1.67;;;30.80;53.50;;;;;;5023117;28;20228;-92
2022/07/29 11:58:12;;;;;;;2.92;1.33;;;31.10;52.80;;;;;;5012361;28;20241;-92
2022/07/29 12:00:41;;;;;;;2.30;1.30;;;31.20;52.10;;;;;;5004775;28;20229;-91
2022/07/29 12:03:13;;;;;;;2.40;1.52;;;31.20;52.00;;;;;;4988505;28;20963;-92
2022/07/29 12:05:50;;;;;;;3.55;1.42;;;31.20;51.80;;;;;;5002182;28;20230;-94
2022/07/29 12:08:19;;;;;;;6.10;1.50;;;31.20;51.30;;;;;;4999631;28;20240;-93
2022/07/29 12:10:47;;;;;;;4.00;1.60;;;31.20;50.90;;;;;;5015631;28;20276;-92
2022/07/29 12:13:18;;;;;;;2.05;1.33;;;31.20;51.40;;;;;;5019428;28;20718;-92
2022/07/29 12:15:53;;;;;;;3.47;1.52;;;31.10;50.90;;;;;;5003721;28;20276;-92
2022/07/29 12:18:21;;;;;;;2.88;1.17;;;31.10;50.90;;;;;;5020355;28;20901;-92
2022/07/29 12:20:48;;;;;;;2.95;1.70;;;31.30;51.30;;;;;;5001762;28;20229;-92
2022/07/29 12:23:16;;;;;;;2.72;1.48;;;31.50;51.00;;;;;;5002006;28;21247;-92
2022/07/29 12:25:44;;;;;;;3.75;1.30;;;31.80;50.30;;;;;;5003896;28;20221;-92
2022/07/29 12:28:15;;;;;;;5.78;1.98;;;32.10;50.00;;;;;;5001554;28;20217;-92
2022/07/29 12:30:48;;;;;;;4.25;1.40;;;32.30;49.90;;;;;;5002125;28;20214;-92
2022/07/29 12:33:18;;;;;;;3.45;1.55;;;32.60;49.30;;;;;;5007574;28;20234;-92
2022/07/29 12:35:47;;;;;;;3.65;1.45;;;32.80;48.30;;;;;;5004611;28;20325;-92
2022/07/29 12:38:15;;;;;;;3.05;1.40;;;32.80;47.50;;;;;;5020354;28;20225;-92
2022/07/29 12:40:43;;;;;;;3.05;1.50;;;32.90;47.40;;;;;;5004721;28;20229;-92
2022/07/29 12:43:12;;;;;;;3.47;1.20;;;32.90;47.30;;;;;;5002694;28;20839;-91
2022/07/29 12:45:42;;;;;;;3.33;1.70;;;33.00;46.40;;;;;;4999973;28;20225;-92
2022/07/29 12:48:11;;;;;;;3.53;1.60;;;33.10;45.90;;;;;;5005224;28;20226;-92
2022/07/29 12:50:53;;;;;;;4.95;1.50;;;33.10;45.80;;;;;;4999356;28;20220;-92
2022/07/29 12:53:21;;;;;;;3.35;1.48;;;33.30;46.30;;;;;;5020172;28;20317;-92
2022/07/29 12:55:51;;;;;;;2.70;1.23;;;33.30;46.30;;;;;;5004034;28;20272;-92
2022/07/29 12:58:29;;;;;;;2.60;1.30;;;33.40;46.10;;;;;;5004666;28;20260;-93
2022/07/29 13:01:11;;;;;;;4.57;1.48;;;33.50;45.40;;;;;;5002600;28;20299;-92
2022/07/29 13:03:53;;;;;;;4.05;1.45;;;33.50;44.40;;;;;;5019950;28;20914;-91
2022/07/29 13:06:39;;;;;;;2.33;1.35;;;33.60;44.20;;;;;;5015773;28;20304;-92
2022/07/29 13:09:14;;;;;;;5.22;1.30;;;33.60;44.90;;;;;;5003392;28;20309;-92